Cookville, Vermont
Current Conditions -  °F | °C
As of 12:39 AM on Thursday 27 Nov 2014 (Local Time) from KMPV Reporting Station
Light Snow Light Snow  
Wind Chill: 18°   Ceiling: 1500
Heat Index: 27°   Visibility: 2.5mi
Dew Point: 25°   Wind: 9mph
Humidity: 92%   Direction: 340°NNW
Pressure: 29.89"   Gusts: NA
Location:  44.0361°N, 72.2949°W
Report Text: KMPV 270539Z AUTO 34008KT 2 1/2SM -SN BR FEW009 OVC015 M03/M04 A2989 RMK AO2 P0000 T10281039
Loading
Personal Weather Stations






























Interactive Weather Map New forecast layout! Learn more

10-Day Weather Forecast

Advertisements
Track Severe Weather on mobile